Time;durP1;ratioP1;P1;durP2;ratioP2;P2;SDS_P1;SDS_P2;PMS_P1;PMS_P2;Temp;Humidity;BMP_temperature;BMP_pressure;BME280_temperature;BME280_humidity;BME280_pressure;Samples;Min_cycle;Max_cycle;Signal;HPM_P1;HPM_P2
2024/03/11 00:02:20;;;;;;;17.38;8.95;;;11.80;99.90;;;;;;5024361;28;20253;-65
2024/03/11 00:04:47;;;;;;;17.65;9.23;;;11.80;99.90;;;;;;5024203;28;20045;-65
2024/03/11 00:07:15;;;;;;;16.33;9.63;;;11.80;99.90;;;;;;5020648;28;20071;-65
2024/03/11 00:09:44;;;;;;;18.73;10.13;;;11.70;99.90;;;;;;5022546;28;20071;-64
2024/03/11 00:12:22;;;;;;;18.38;10.05;;;11.70;99.90;;;;;;5028466;28;20037;-65
2024/03/11 00:14:50;;;;;;;19.80;10.20;;;11.70;99.90;;;;;;5020242;28;20067;-64
2024/03/11 00:17:16;;;;;;;17.23;9.30;;;11.60;99.90;;;;;;5020718;28;20034;-66
2024/03/11 00:19:47;;;;;;;20.73;9.70;;;11.60;99.90;;;;;;5020346;28;20050;-67
2024/03/11 00:22:15;;;;;;;22.10;11.05;;;11.70;99.90;;;;;;5023913;28;20037;-65
2024/03/11 00:24:40;;;;;;;16.80;9.82;;;11.60;99.90;;;;;;5030055;28;20040;-64
2024/03/11 00:27:08;;;;;;;18.30;10.85;;;11.60;99.90;;;;;;5019257;28;20034;-64
2024/03/11 00:29:35;;;;;;;17.85;10.25;;;11.50;99.90;;;;;;5016714;28;20037;-64
2024/03/11 00:32:02;;;;;;;17.20;9.13;;;11.60;99.90;;;;;;5033145;28;20250;-64
2024/03/11 00:34:29;;;;;;;22.65;10.73;;;11.60;99.90;;;;;;5019732;28;20026;-64
2024/03/11 00:36:55;;;;;;;16.35;9.85;;;11.40;99.90;;;;;;5020066;28;20112;-64
2024/03/11 00:39:21;;;;;;;15.85;10.00;;;11.60;99.90;;;;;;5030613;28;20321;-67
2024/03/11 00:41:46;;;;;;;15.63;8.68;;;11.50;99.90;;;;;;5033091;28;20041;-65
2024/03/11 00:44:12;;;;;;;14.85;8.77;;;11.40;99.90;;;;;;5026495;28;20071;-66
2024/03/11 00:46:38;;;;;;;18.20;8.68;;;11.40;99.90;;;;;;5020631;28;20038;-65
2024/03/11 00:49:06;;;;;;;16.75;9.38;;;11.60;99.90;;;;;;5019650;28;20058;-64
2024/03/11 00:51:31;;;;;;;15.68;7.30;;;11.60;99.90;;;;;;5029892;28;20030;-64
2024/03/11 00:53:57;;;;;;;27.17;9.52;;;11.70;99.90;;;;;;5019604;28;20076;-64
2024/03/11 00:56:23;;;;;;;22.77;10.10;;;11.60;99.90;;;;;;5026565;28;20025;-65
2024/03/11 00:58:48;;;;;;;17.52;9.18;;;11.60;99.90;;;;;;5019352;28;20377;-66
2024/03/11 01:01:14;;;;;;;12.45;8.18;;;11.60;99.90;;;;;;5021581;28;20044;-66
2024/03/11 01:03:43;;;;;;;18.25;9.10;;;11.50;99.90;;;;;;5034434;28;20209;-66
2024/03/11 01:06:09;;;;;;;22.52;8.65;;;11.50;99.90;;;;;;5029376;28;20042;-68
2024/03/11 01:08:37;;;;;;;15.43;8.25;;;11.50;99.90;;;;;;5020692;28;20050;-68
2024/03/11 01:11:03;;;;;;;14.25;8.15;;;11.50;99.90;;;;;;5026055;28;20046;-69
2024/03/11 01:13:28;;;;;;;16.75;8.32;;;11.50;99.90;;;;;;5023406;28;20051;-71
2024/03/11 01:15:54;;;;;;;12.65;7.65;;;11.40;99.90;;;;;;5020458;28;20053;-70
2024/03/11 01:18:24;;;;;;;15.40;7.30;;;11.40;99.90;;;;;;5020507;28;20088;-70
2024/03/11 01:20:50;;;;;;;13.77;7.05;;;11.40;99.90;;;;;;5020591;28;20063;-71
2024/03/11 01:23:17;;;;;;;15.48;8.05;;;11.40;99.90;;;;;;5020610;28;20044;-72
2024/03/11 01:25:45;;;;;;;17.20;7.38;;;11.70;99.90;;;;;;5033074;28;20293;-68
2024/03/11 01:28:10;;;;;;;18.13;7.32;;;11.50;99.90;;;;;;5027581;28;20069;-68
2024/03/11 01:30:37;;;;;;;12.38;6.60;;;11.50;99.90;;;;;;5019583;28;20046;-68
2024/03/11 01:33:04;;;;;;;11.70;6.45;;;11.60;99.90;;;;;;5020472;28;20265;-69
2024/03/11 01:35:31;;;;;;;12.65;6.63;;;11.50;99.90;;;;;;5026610;28;20033;-69
2024/03/11 01:37:56;;;;;;;11.77;7.28;;;11.60;99.70;;;;;;5021381;28;20065;-70
2024/03/11 01:40:23;;;;;;;12.75;7.18;;;11.60;99.50;;;;;;5026538;28;20053;-71
2024/03/11 01:42:50;;;;;;;16.17;8.43;;;11.50;99.90;;;;;;5025455;28;20030;-69
2024/03/11 01:45:16;;;;;;;16.95;8.68;;;11.40;99.90;;;;;;5024970;28;20044;-69
2024/03/11 01:47:47;;;;;;;15.48;8.15;;;11.40;99.90;;;;;;5029129;28;20038;-69
2024/03/11 01:50:16;;;;;;;18.52;8.80;;;11.40;99.90;;;;;;5028617;28;20081;-69
2024/03/11 01:52:56;;;;;;;;;;;11.40;99.90;;;;;;5025828;28;20040;-71
2024/03/11 01:55:24;;;;;;;20.27;11.48;;;11.30;99.90;;;;;;5025975;28;20144;-70
2024/03/11 01:57:54;;;;;;;18.55;10.93;;;11.30;99.90;;;;;;5037832;28;20087;-68
2024/03/11 02:00:22;;;;;;;18.33;10.93;;;11.30;99.90;;;;;;5030471;28;20046;-70
2024/03/11 02:02:49;;;;;;;22.00;9.95;;;11.20;99.90;;;;;;5030225;28;20035;-71
2024/03/11 02:05:14;;;;;;;20.15;10.65;;;11.10;99.90;;;;;;5027035;28;20042;-71
2024/03/11 02:07:46;;;;;;;19.30;11.50;;;11.10;99.90;;;;;;5025155;28;20038;-71
2024/03/11 02:10:15;;;;;;;20.45;9.70;;;10.90;99.90;;;;;;5025204;28;20038;-70
2024/03/11 02:12:42;;;;;;;25.13;10.20;;;10.90;99.90;;;;;;5022888;28;20034;-70
2024/03/11 02:15:12;;;;;;;18.40;10.32;;;10.90;99.90;;;;;;5023254;28;20033;-71
2024/03/11 02:17:44;;;;;;;17.73;10.57;;;10.80;99.90;;;;;;5030669;28;20041;-72
2024/03/11 02:20:15;;;;;;;22.65;10.63;;;10.70;99.90;;;;;;5019218;28;20053;-69
2024/03/11 02:22:45;;;;;;;16.30;10.43;;;10.70;99.90;;;;;;5025245;28;20097;-72
2024/03/11 02:25:26;;;;;;;17.10;9.55;;;10.70;99.90;;;;;;5022235;28;20079;-71
2024/03/11 02:27:55;;;;;;;19.92;9.93;;;10.70;99.90;;;;;;5022181;28;20038;-71
2024/03/11 02:30:21;;;;;;;16.50;9.50;;;10.60;99.90;;;;;;5024442;28;20108;-71
2024/03/11 02:32:47;;;;;;;21.50;10.60;;;10.60;99.90;;;;;;5022355;28;20101;-68
2024/03/11 02:35:13;;;;;;;17.92;9.77;;;10.60;99.90;;;;;;5020738;28;20237;-68
2024/03/11 02:37:39;;;;;;;15.70;9.80;;;10.60;99.90;;;;;;5033421;28;20105;-69
2024/03/11 02:40:09;;;;;;;16.48;8.23;;;10.60;99.90;;;;;;5022206;28;20044;-68
2024/03/11 02:42:35;;;;;;;19.60;9.15;;;10.50;99.90;;;;;;5026514;28;20068;-69
2024/03/11 02:45:09;;;;;;;17.10;8.10;;;10.50;99.90;;;;;;5032508;28;20383;-68
2024/03/11 02:47:36;;;;;;;15.85;8.77;;;10.50;99.90;;;;;;5022105;28;20064;-69
2024/03/11 02:50:05;;;;;;;20.33;8.80;;;10.50;99.90;;;;;;5020727;28;20357;-70
2024/03/11 02:52:32;;;;;;;18.88;8.90;;;10.50;99.90;;;;;;5021566;28;20040;-69
2024/03/11 02:54:57;;;;;;;18.58;8.38;;;10.20;99.90;;;;;;5028301;28;20037;-71
2024/03/11 02:57:23;;;;;;;15.75;8.73;;;10.40;99.90;;;;;;5023056;28;20337;-69
2024/03/11 02:59:50;;;;;;;16.08;9.43;;;10.20;99.90;;;;;;5023987;28;20266;-69
2024/03/11 03:02:16;;;;;;;20.00;5.82;;;10.30;99.90;;;;;;5020450;28;20034;-68
2024/03/11 03:04:42;;;;;;;14.82;7.93;;;10.30;99.90;;;;;;5022633;28;20282;-69
2024/03/11 03:07:09;;;;;;;13.18;7.90;;;10.40;99.90;;;;;;5017789;28;20349;-68
2024/03/11 03:09:36;;;;;;;17.30;9.30;;;;;;;;;;5020367;28;20046;-68
2024/03/11 03:12:03;;;;;;;13.88;7.82;;;10.50;99.90;;;;;;5025756;28;20263;-68
2024/03/11 03:14:30;;;;;;;13.82;7.85;;;10.40;99.90;;;;;;5021626;28;20156;-69
2024/03/11 03:16:56;;;;;;;15.50;7.85;;;10.40;99.90;;;;;;5019494;28;20057;-68
2024/03/11 03:19:22;;;;;;;17.25;7.75;;;10.40;99.90;;;;;;5018289;28;20173;-68
2024/03/11 03:21:48;;;;;;;16.42;9.07;;;10.50;99.90;;;;;;5021804;28;20419;-68
2024/03/11 03:24:14;;;;;;;19.17;8.98;;;10.50;99.90;;;;;;5021630;28;20033;-68
2024/03/11 03:26:39;;;;;;;15.95;8.85;;;10.50;99.90;;;;;;5015563;28;20037;-68
2024/03/11 03:29:06;;;;;;;15.75;8.77;;;10.40;99.90;;;;;;5024962;28;20033;-69
2024/03/11 03:31:32;;;;;;;17.88;9.43;;;10.50;99.90;;;;;;5021562;28;20092;-69
2024/03/11 03:33:58;;;;;;;14.55;8.50;;;10.60;99.90;;;;;;5024904;28;20412;-70
2024/03/11 03:36:24;;;;;;;15.65;9.93;;;10.50;99.90;;;;;;5026356;28;20034;-71
2024/03/11 03:38:50;;;;;;;16.60;9.43;;;10.40;99.90;;;;;;5024286;28;20101;-73
2024/03/11 03:41:16;;;;;;;16.08;10.15;;;10.40;99.90;;;;;;5024450;28;20060;-69
2024/03/11 03:43:43;;;;;;;17.63;9.15;;;10.40;99.90;;;;;;5024198;28;20093;-70
2024/03/11 03:46:08;;;;;;;17.40;9.43;;;10.40;99.90;;;;;;5032098;28;20140;-70
2024/03/11 03:48:34;;;;;;;16.13;9.30;;;10.60;99.90;;;;;;5026864;28;20041;-69
2024/03/11 03:51:03;;;;;;;19.20;9.45;;;10.30;99.90;;;;;;5028920;28;20040;-73
2024/03/11 03:53:29;;;;;;;18.65;9.27;;;10.30;99.90;;;;;;5025985;28;20041;-68
2024/03/11 03:55:55;;;;;;;15.75;9.82;;;;;;;;;;5023978;28;20033;-69
2024/03/11 03:58:21;;;;;;;19.73;9.52;;;10.20;99.90;;;;;;5023853;28;20034;-69
2024/03/11 04:00:47;;;;;;;20.00;10.00;;;10.20;99.90;;;;;;5023313;28;20030;-69
2024/03/11 04:03:14;;;;;;;19.30;9.55;;;10.20;99.90;;;;;;5025904;28;20032;-68
2024/03/11 04:05:41;;;;;;;19.60;10.32;;;10.10;99.90;;;;;;5030838;28;20041;-68
2024/03/11 04:08:07;;;;;;;17.55;9.60;;;10.00;99.90;;;;;;5022461;28;20076;-71
2024/03/11 04:10:34;;;;;;;24.92;10.50;;;10.20;99.90;;;;;;5030677;28;20038;-71
2024/03/11 04:13:00;;;;;;;21.58;10.38;;;10.20;99.90;;;;;;5022753;28;20037;-73
2024/03/11 04:15:25;;;;;;;17.02;9.35;;;10.20;99.90;;;;;;5031306;28;20045;-70
2024/03/11 04:17:55;;;;;;;18.08;8.70;;;10.20;99.90;;;;;;5023169;28;20025;-71
2024/03/11 04:20:27;;;;;;;24.52;11.02;;;10.10;99.90;;;;;;5024564;28;20275;-70
2024/03/11 04:22:53;;;;;;;17.17;9.57;;;10.20;99.90;;;;;;5020668;28;20143;-70
2024/03/11 04:25:28;;;;;;;14.95;9.38;;;10.20;99.90;;;;;;5022348;28;20021;-69
2024/03/11 04:27:55;;;;;;;15.38;8.38;;;10.10;99.90;;;;;;5022324;28;20053;-71
2024/03/11 04:30:29;;;;;;;15.48;8.65;;;10.20;99.90;;;;;;5030250;28;20332;-70
2024/03/11 04:32:54;;;;;;;17.85;8.15;;;10.10;99.90;;;;;;5022556;28;20072;-69
2024/03/11 04:35:24;;;;;;;16.95;9.88;;;10.10;99.90;;;;;;5032330;28;20036;-69
2024/03/11 04:37:52;;;;;;;16.77;8.90;;;10.20;99.90;;;;;;5024294;28;20058;-70
2024/03/11 04:40:18;;;;;;;17.05;9.38;;;10.10;99.90;;;;;;5028421;28;20373;-69
2024/03/11 04:42:44;;;;;;;18.63;9.25;;;10.30;99.90;;;;;;5021987;28;20030;-70
2024/03/11 04:45:10;;;;;;;18.08;8.70;;;10.20;99.90;;;;;;5019963;28;20076;-69
2024/03/11 04:47:37;;;;;;;15.25;9.23;;;;;;;;;;5019895;28;20061;-69
2024/03/11 04:50:03;;;;;;;16.05;9.15;;;10.20;99.90;;;;;;5020270;28;20437;-70
2024/03/11 04:52:29;;;;;;;17.77;8.88;;;10.20;99.90;;;;;;5019736;28;20045;-69
2024/03/11 04:54:55;;;;;;;21.65;9.25;;;10.20;99.90;;;;;;5025726;28;20721;-70
2024/03/11 04:57:22;;;;;;;18.73;8.02;;;10.10;99.90;;;;;;5022583;28;20413;-69
2024/03/11 04:59:49;;;;;;;18.35;9.02;;;10.20;99.90;;;;;;5026012;28;20222;-69
2024/03/11 05:02:16;;;;;;;16.50;8.70;;;10.20;99.90;;;;;;5021252;28;20030;-69
2024/03/11 05:04:43;;;;;;;19.40;10.15;;;10.30;99.90;;;;;;5029604;28;20230;-70
2024/03/11 05:07:09;;;;;;;14.90;9.27;;;10.30;99.90;;;;;;5026484;28;20092;-69
2024/03/11 05:09:36;;;;;;;15.98;9.10;;;10.10;99.90;;;;;;5019384;28;20041;-70
2024/03/11 05:12:03;;;;;;;14.60;9.10;;;10.10;99.90;;;;;;5028274;28;20033;-69
2024/03/11 05:14:28;;;;;;;15.75;8.55;;;10.20;99.90;;;;;;5032811;28;20405;-73
2024/03/11 05:16:54;;;;;;;21.38;10.60;;;10.20;99.90;;;;;;5032384;28;20052;-69
2024/03/11 05:19:21;;;;;;;21.40;10.80;;;10.10;99.90;;;;;;5023656;28;20057;-68
2024/03/11 05:21:47;;;;;;;16.98;9.88;;;10.10;99.90;;;;;;5023414;28;20048;-69
2024/03/11 05:24:18;;;;;;;17.08;9.93;;;10.00;99.90;;;;;;5031716;28;20037;-68
2024/03/11 05:26:45;;;;;;;16.75;11.05;;;10.00;99.90;;;;;;5031143;28;20344;-69
2024/03/11 05:29:13;;;;;;;18.77;9.60;;;9.80;99.90;;;;;;5025475;28;20045;-68
2024/03/11 05:31:39;;;;;;;20.33;10.60;;;9.70;99.90;;;;;;5031026;28;20037;-69
2024/03/11 05:34:05;;;;;;;22.95;10.10;;;10.00;99.90;;;;;;5026985;28;20068;-69
2024/03/11 05:36:32;;;;;;;17.95;10.45;;;9.90;99.90;;;;;;5023055;28;20065;-69
2024/03/11 05:38:58;;;;;;;18.70;9.80;;;9.90;99.90;;;;;;5022738;28;20349;-68
2024/03/11 05:41:23;;;;;;;16.90;9.65;;;9.90;99.90;;;;;;5022585;28;20052;-68
2024/03/11 05:43:49;;;;;;;17.48;10.15;;;10.00;99.90;;;;;;5026227;28;20029;-68
2024/03/11 05:46:15;;;;;;;16.35;9.13;;;10.00;99.90;;;;;;5033707;28;20045;-69
2024/03/11 05:48:40;;;;;;;16.20;9.77;;;10.00;99.90;;;;;;5023426;28;20250;-70
2024/03/11 05:51:07;;;;;;;19.60;9.75;;;;;;;;;;5007630;28;20042;-68
2024/03/11 05:53:34;;;;;;;20.45;10.77;;;10.10;99.90;;;;;;5020769;28;20025;-70
2024/03/11 05:56:02;;;;;;;19.40;9.85;;;10.30;99.90;;;;;;5022831;28;20046;-70
2024/03/11 05:58:29;;;;;;;18.80;10.02;;;;;;;;;;5022647;28;20030;-70
2024/03/11 06:00:58;;;;;;;20.73;10.00;;;10.30;99.90;;;;;;5023105;28;20061;-70
2024/03/11 06:03:24;;;;;;;33.00;12.75;;;10.20;99.90;;;;;;5025316;28;20026;-70
2024/03/11 06:05:51;;;;;;;16.90;9.88;;;10.20;99.90;;;;;;5022814;28;20036;-70
2024/03/11 06:08:18;;;;;;;18.85;10.73;;;10.20;99.90;;;;;;5032043;28;20055;-69
2024/03/11 06:10:44;;;;;;;17.52;10.13;;;10.20;99.90;;;;;;5023035;28;20376;-69
2024/03/11 06:13:10;;;;;;;20.15;9.80;;;10.40;99.90;;;;;;5022589;28;20038;-69
2024/03/11 06:15:37;;;;;;;19.27;9.95;;;10.30;99.90;;;;;;5022617;28;20197;-70
2024/03/11 06:18:04;;;;;;;20.90;12.13;;;10.30;99.90;;;;;;5023547;28;20034;-70
2024/03/11 06:20:30;;;;;;;20.27;9.98;;;10.30;99.90;;;;;;5025851;28;20037;-66
2024/03/11 06:22:55;;;;;;;15.80;10.48;;;10.30;99.90;;;;;;5023613;28;20034;-68
2024/03/11 06:25:21;;;;;;;14.57;9.10;;;10.60;99.90;;;;;;5037978;28;20037;-67
2024/03/11 06:27:50;;;;;;;18.90;9.85;;;10.30;99.90;;;;;;5022078;28;20099;-67
2024/03/11 06:30:19;;;;;;;16.40;9.80;;;10.30;99.90;;;;;;5022112;28;20055;-66
2024/03/11 06:32:48;;;;;;;17.75;10.32;;;;;;;;;;5030404;28;20033;-67
2024/03/11 06:35:15;;;;;;;15.82;9.80;;;10.60;99.90;;;;;;5022996;28;20337;-68
2024/03/11 06:37:43;;;;;;;22.05;10.15;;;10.40;99.90;;;;;;5030071;28;20357;-67
2024/03/11 06:40:09;;;;;;;23.35;10.65;;;10.40;99.90;;;;;;5020522;28;20061;-66
2024/03/11 06:42:36;;;;;;;17.42;10.07;;;10.90;99.90;;;;;;5021626;28;20045;-69
2024/03/11 06:45:02;;;;;;;17.30;10.15;;;10.60;99.90;;;;;;5020602;28;20334;-68
2024/03/11 06:47:28;;;;;;;17.85;9.57;;;10.70;99.90;;;;;;5029242;28;20038;-67
2024/03/11 06:49:53;;;;;;;15.20;9.38;;;10.80;99.90;;;;;;5021675;28;20029;-67
2024/03/11 06:52:19;;;;;;;15.35;9.77;;;10.60;99.90;;;;;;5025026;28;20093;-67
2024/03/11 06:54:46;;;;;;;17.52;11.80;;;10.90;99.90;;;;;;5022078;28;20026;-68
2024/03/11 06:57:12;;;;;;;14.32;9.85;;;10.90;99.90;;;;;;5025185;28;20060;-67
2024/03/11 06:59:39;;;;;;;18.63;11.07;;;11.10;99.90;;;;;;5029624;28;20393;-67
2024/03/11 07:02:06;;;;;;;17.33;10.57;;;11.00;99.90;;;;;;5023034;28;20038;-67
2024/03/11 07:04:31;;;;;;;16.42;9.20;;;11.00;99.90;;;;;;5029549;28;20033;-67
2024/03/11 07:06:59;;;;;;;18.60;9.88;;;11.00;99.90;;;;;;5024228;28;20187;-67
2024/03/11 07:09:25;;;;;;;17.30;10.88;;;11.00;99.90;;;;;;5025076;28;20120;-68
2024/03/11 07:11:51;;;;;;;16.67;9.45;;;11.00;99.90;;;;;;5020972;28;20034;-68
2024/03/11 07:14:17;;;;;;;19.70;11.00;;;11.10;99.90;;;;;;5028250;28;20131;-68
2024/03/11 07:16:43;;;;;;;19.83;10.38;;;11.30;99.90;;;;;;5021374;28;20029;-68
2024/03/11 07:19:10;;;;;;;15.80;9.98;;;11.10;99.90;;;;;;5020823;28;20109;-68
2024/03/11 07:21:37;;;;;;;17.67;10.88;;;11.10;99.90;;;;;;5020039;28;20030;-67
2024/03/11 07:24:05;;;;;;;18.73;11.15;;;11.30;99.90;;;;;;5021032;28;20038;-68
2024/03/11 07:26:31;;;;;;;17.65;10.82;;;11.20;99.90;;;;;;5024628;28;20033;-68
2024/03/11 07:29:08;;;;;;;15.52;10.38;;;11.20;99.90;;;;;;5025905;28;20270;-69
2024/03/11 07:31:33;;;;;;;20.83;10.73;;;11.30;99.90;;;;;;5032025;28;20677;-68
2024/03/11 07:33:59;;;;;;;19.50;11.13;;;11.50;99.90;;;;;;5015720;28;20033;-69
2024/03/11 07:36:26;;;;;;;18.35;10.65;;;11.50;99.90;;;;;;5022220;28;20037;-68
2024/03/11 07:38:51;;;;;;;21.05;10.52;;;11.70;99.90;;;;;;5028991;28;20219;-69
2024/03/11 07:41:17;;;;;;;18.23;10.65;;;11.70;99.90;;;;;;5022954;28;20038;-68
2024/03/11 07:43:43;;;;;;;20.77;11.80;;;11.70;99.90;;;;;;5025669;28;20996;-69
2024/03/11 07:46:08;;;;;;;16.58;11.10;;;11.80;99.90;;;;;;5022032;28;20072;-68
2024/03/11 07:48:34;;;;;;;21.63;10.70;;;12.00;99.90;;;;;;5022297;28;20353;-68
2024/03/11 07:51:00;;;;;;;16.70;10.10;;;11.70;99.90;;;;;;5022056;28;20230;-73
2024/03/11 07:53:25;;;;;;;18.95;10.40;;;11.80;99.90;;;;;;5022171;28;20326;-69
2024/03/11 07:55:51;;;;;;;17.15;9.95;;;11.60;99.90;;;;;;5029003;28;20030;-67
2024/03/11 07:58:17;;;;;;;18.52;10.93;;;11.70;99.90;;;;;;5020570;28;20036;-69
2024/03/11 08:00:42;;;;;;;20.67;10.50;;;11.70;99.90;;;;;;5024734;28;20033;-68
2024/03/11 08:03:09;;;;;;;15.65;9.45;;;11.80;99.90;;;;;;5028787;28;20041;-69
2024/03/11 08:05:36;;;;;;;13.98;9.98;;;11.70;99.90;;;;;;5025667;28;20337;-68
2024/03/11 08:08:04;;;;;;;15.00;10.50;;;11.80;99.90;;;;;;5022640;28;20084;-71
2024/03/11 08:10:31;;;;;;;17.13;9.90;;;11.80;99.90;;;;;;5020443;28;20085;-69
2024/03/11 08:12:57;;;;;;;19.63;10.68;;;11.80;99.90;;;;;;5022363;28;20037;-68
2024/03/11 08:15:23;;;;;;;19.65;11.93;;;11.80;99.90;;;;;;5020149;28;20036;-68
2024/03/11 08:17:50;;;;;;;17.20;10.55;;;11.90;99.90;;;;;;5015646;28;20038;-68
2024/03/11 08:20:17;;;;;;;13.95;8.70;;;11.90;99.40;;;;;;5019758;28;20037;-69
2024/03/11 08:22:48;;;;;;;15.65;10.20;;;11.90;98.80;;;;;;5023341;28;20040;-69
2024/03/11 08:25:15;;;;;;;22.13;10.77;;;11.90;99.00;;;;;;5019547;28;20309;-68
2024/03/11 08:27:41;;;;;;;16.85;10.50;;;11.80;99.00;;;;;;5019562;28;20052;-66
2024/03/11 08:30:09;;;;;;;20.15;11.00;;;11.80;99.20;;;;;;5019792;28;20284;-70
2024/03/11 08:32:36;;;;;;;18.00;11.15;;;11.60;99.90;;;;;;5021438;28;20083;-68
2024/03/11 08:35:02;;;;;;;20.45;11.07;;;11.80;99.60;;;;;;5024601;28;20112;-67
2024/03/11 08:37:29;;;;;;;18.13;10.73;;;11.80;99.50;;;;;;5022258;28;20092;-67
2024/03/11 08:39:56;;;;;;;17.23;10.23;;;12.20;99.90;;;;;;5019968;28;20100;-67
2024/03/11 08:42:23;;;;;;;17.65;9.68;;;11.70;99.90;;;;;;5019413;28;20218;-69
2024/03/11 08:44:50;;;;;;;19.65;10.32;;;11.70;99.90;;;;;;5026988;28;20037;-68
2024/03/11 08:47:17;;;;;;;16.75;10.18;;;11.60;99.90;;;;;;5019108;28;20365;-67
2024/03/11 08:49:44;;;;;;;14.55;10.40;;;11.80;99.90;;;;;;5018794;28;20038;-67
2024/03/11 08:52:12;;;;;;;18.05;10.48;;;11.70;99.90;;;;;;5023165;28;20097;-67
2024/03/11 08:54:40;;;;;;;18.35;9.15;;;11.80;99.90;;;;;;5019072;28;20045;-67
2024/03/11 08:57:08;;;;;;;16.13;10.43;;;12.10;99.90;;;;;;5019134;28;20037;-67
2024/03/11 08:59:35;;;;;;;19.63;9.93;;;12.10;99.90;;;;;;5019316;28;20056;-67
2024/03/11 09:02:01;;;;;;;15.40;9.95;;;11.80;99.90;;;;;;5019292;28;20089;-67
2024/03/11 09:04:28;;;;;;;23.10;12.15;;;11.90;99.80;;;;;;5019076;28;20045;-67
2024/03/11 09:06:56;;;;;;;21.17;11.68;;;12.00;99.90;;;;;;5027129;28;20029;-67
2024/03/11 09:09:24;;;;;;;20.40;9.90;;;12.00;99.60;;;;;;5022969;28;20041;-67
2024/03/11 09:11:57;;;;;;;17.27;9.57;;;12.20;99.90;;;;;;5019043;28;20108;-68
2024/03/11 09:14:27;;;;;;;20.40;10.57;;;12.30;99.90;;;;;;5018887;28;20098;-67
2024/03/11 09:16:57;;;;;;;15.85;10.20;;;12.30;98.50;;;;;;5021086;28;20033;-67
2024/03/11 09:19:26;;;;;;;21.20;10.13;;;;;;;;;;5020947;28;20045;-67
2024/03/11 09:21:53;;;;;;;21.90;11.52;;;12.70;96.70;;;;;;5011274;28;20057;-67
2024/03/11 09:24:20;;;;;;;15.63;9.82;;;12.70;97.00;;;;;;5019586;28;20038;-67
2024/03/11 09:26:51;;;;;;;19.23;10.73;;;12.90;99.90;;;;;;5022534;28;20022;-68
2024/03/11 09:29:17;;;;;;;20.58;11.18;;;12.70;96.80;;;;;;5018650;28;20037;-68
2024/03/11 09:31:46;;;;;;;22.77;11.48;;;12.80;99.90;;;;;;5021477;28;20049;-68
2024/03/11 09:34:13;;;;;;;15.88;10.30;;;12.70;96.70;;;;;;5023928;28;20135;-67
2024/03/11 09:36:44;;;;;;;23.17;12.05;;;12.80;96.90;;;;;;5030078;28;20378;-67
2024/03/11 09:39:13;;;;;;;20.45;12.00;;;12.60;97.40;;;;;;5018864;28;20048;-70
2024/03/11 09:41:44;;;;;;;21.52;10.25;;;12.60;97.90;;;;;;5018627;28;20034;-67
2024/03/11 09:44:15;;;;;;;16.95;10.98;;;12.40;99.90;;;;;;5022601;28;20049;-67
2024/03/11 09:46:45;;;;;;;17.42;11.73;;;12.50;98.30;;;;;;5017065;28;20081;-67
2024/03/11 09:49:15;;;;;;;16.85;11.15;;;12.60;99.90;;;;;;5022206;28;20049;-69
2024/03/11 09:51:45;;;;;;;21.55;13.27;;;12.50;99.30;;;;;;5018469;28;20038;-67
2024/03/11 09:54:16;;;;;;;18.15;10.88;;;12.40;99.90;;;;;;5018542;28;20389;-67
2024/03/11 09:56:45;;;;;;;22.13;12.05;;;;;;;;;;5001167;28;20030;-67
2024/03/11 09:59:18;;;;;;;;;;;12.40;99.50;;;;;;5021060;28;20330;-67
2024/03/11 10:01:51;;;;;;;19.50;11.82;;;12.30;99.90;;;;;;5028145;28;19921;-69
2024/03/11 10:04:20;;;;;;;23.48;12.52;;;12.10;99.90;;;;;;5024197;28;20048;-67
2024/03/11 10:06:56;;;;;;;21.42;13.02;;;12.40;99.90;;;;;;5022573;28;20033;-67
2024/03/11 10:09:28;;;;;;;22.42;12.20;;;12.10;99.90;;;;;;5038356;28;20037;-66
2024/03/11 10:12:08;;;;;;;24.98;12.13;;;12.30;99.90;;;;;;5022201;28;20034;-66
2024/03/11 10:14:43;;;;;;;18.95;12.32;;;12.30;99.90;;;;;;5027815;28;20048;-67
2024/03/11 10:17:28;;;;;;;24.27;12.52;;;12.40;99.90;;;;;;5026075;28;20073;-66
2024/03/11 10:19:56;;;;;;;19.17;13.07;;;12.30;99.90;;;;;;5026304;28;20041;-66
2024/03/11 10:22:28;;;;;;;21.92;14.25;;;12.60;99.90;;;;;;5025844;28;20037;-67
2024/03/11 10:24:57;;;;;;;22.00;12.85;;;12.60;99.90;;;;;;5022157;28;20038;-66
2024/03/11 10:27:40;;;;;;;23.50;13.80;;;12.60;99.90;;;;;;5027894;28;20237;-66
2024/03/11 10:30:20;;;;;;;17.05;12.32;;;12.60;99.90;;;;;;5021822;28;20322;-66
2024/03/11 10:32:52;;;;;;;18.88;13.63;;;12.60;99.90;;;;;;5021568;28;20026;-68
2024/03/11 10:35:21;;;;;;;23.45;13.82;;;12.60;99.90;;;;;;5025764;28;20034;-66
2024/03/11 10:37:50;;;;;;;21.08;15.40;;;12.60;99.90;;;;;;5027934;28;20113;-66
2024/03/11 10:40:20;;;;;;;20.00;14.38;;;12.60;99.90;;;;;;5021514;28;20041;-68
2024/03/11 10:42:53;;;;;;;23.50;15.32;;;12.50;99.90;;;;;;5029860;28;20053;-68
2024/03/11 10:45:37;;;;;;;23.67;15.15;;;12.60;99.90;;;;;;5021394;28;20033;-67
2024/03/11 10:48:03;;;;;;;22.35;15.27;;;13.00;99.90;;;;;;5024537;28;20553;-66
2024/03/11 10:50:32;;;;;;;19.70;14.40;;;12.70;99.90;;;;;;5012155;28;20091;-66
2024/03/11 10:53:03;;;;;;;22.33;12.70;;;12.70;99.90;;;;;;5032857;28;20038;-68
2024/03/11 10:55:32;;;;;;;24.00;16.10;;;12.70;99.90;;;;;;5022063;28;20132;-67
2024/03/11 10:58:09;;;;;;;23.83;15.60;;;13.10;99.90;;;;;;5027126;28;20064;-67
2024/03/11 11:00:35;;;;;;;22.25;15.35;;;12.90;99.90;;;;;;5019952;28;20363;-67
2024/03/11 11:03:12;;;;;;;22.52;15.50;;;13.00;99.90;;;;;;5027685;28;20073;-67
2024/03/11 11:06:00;;;;;;;21.90;15.02;;;13.10;99.90;;;;;;5027667;28;20033;-66
2024/03/11 11:08:30;;;;;;;19.25;12.15;;;13.00;99.90;;;;;;5024974;28;20077;-67
2024/03/11 11:10:58;;;;;;;21.92;15.40;;;13.20;99.90;;;;;;5025118;28;20044;-67
2024/03/11 11:13:25;;;;;;;24.85;15.63;;;13.10;99.90;;;;;;5020524;28;20033;-66
2024/03/11 11:15:53;;;;;;;18.65;14.85;;;13.10;99.90;;;;;;5020958;28;20029;-67
2024/03/11 11:18:24;;;;;;;23.13;16.80;;;13.00;99.90;;;;;;5020989;28;20369;-67
2024/03/11 11:20:52;;;;;;;23.83;15.32;;;13.40;99.90;;;;;;5020116;28;20072;-67
2024/03/11 11:23:27;;;;;;;23.75;15.73;;;13.00;99.90;;;;;;5019623;28;20028;-67
2024/03/11 11:25:57;;;;;;;22.33;15.48;;;13.10;99.90;;;;;;5023981;28;20029;-67
2024/03/11 11:28:28;;;;;;;17.60;14.07;;;13.10;99.90;;;;;;5020598;28;20030;-66
2024/03/11 11:31:32;;;;;;;18.42;13.70;;;13.00;99.90;;;;;;5020785;28;20097;-67
2024/03/11 11:34:04;;;;;;;19.48;14.02;;;12.90;99.90;;;;;;5022276;28;20218;-67
2024/03/11 11:36:36;;;;;;;18.58;13.63;;;12.90;99.90;;;;;;5020302;28;20088;-67
2024/03/11 11:39:13;;;;;;;20.30;12.45;;;13.10;99.90;;;;;;5023583;28;20034;-66
2024/03/11 11:41:42;;;;;;;18.98;13.07;;;13.00;99.90;;;;;;5024103;28;20037;-66
2024/03/11 11:44:08;;;;;;;18.67;12.32;;;13.00;99.90;;;;;;5022696;28;20064;-66
2024/03/11 11:46:47;;;;;;;18.60;11.38;;;13.00;99.90;;;;;;5028718;28;20033;-66
2024/03/11 11:49:21;;;;;;;17.92;12.18;;;12.90;99.60;;;;;;5019031;28;20037;-65
2024/03/11 11:51:51;;;;;;;19.30;11.85;;;13.10;99.50;;;;;;5020368;28;20140;-67
2024/03/11 11:54:26;;;;;;;24.23;11.50;;;13.00;99.90;;;;;;5020200;28;20074;-66
2024/03/11 11:57:06;;;;;;;16.70;10.80;;;13.20;99.90;;;;;;5020466;28;20076;-66
2024/03/11 11:59:38;;;;;;;17.30;12.30;;;13.20;98.20;;;;;;5023990;28;20385;-65
2024/03/11 12:02:08;;;;;;;18.58;12.43;;;13.20;99.90;;;;;;5020052;28;20042;-65
2024/03/11 12:04:34;;;;;;;22.55;12.63;;;13.20;98.40;;;;;;5022087;28;20026;-65
2024/03/11 12:07:00;;;;;;;20.88;13.32;;;13.20;98.10;;;;;;5019723;28;20045;-66
2024/03/11 12:09:29;;;;;;;13.93;11.20;;;13.20;99.90;;;;;;5019780;28;20037;-66
2024/03/11 12:11:57;;;;;;;18.38;11.55;;;13.20;99.00;;;;;;5020203;28;20033;-66
2024/03/11 12:14:26;;;;;;;18.00;11.43;;;13.20;99.90;;;;;;5019798;28;20083;-67
2024/03/11 12:17:04;;;;;;;16.85;11.60;;;13.00;99.50;;;;;;5023741;28;20056;-66
2024/03/11 12:19:30;;;;;;;20.65;11.40;;;12.80;99.90;;;;;;5028831;28;20030;-66
2024/03/11 12:21:58;;;;;;;17.30;11.02;;;12.90;99.90;;;;;;5021866;28;20045;-66
2024/03/11 12:24:24;;;;;;;19.63;12.23;;;12.70;99.90;;;;;;5021913;28;20112;-66
2024/03/11 12:26:50;;;;;;;18.63;12.05;;;12.90;99.90;;;;;;5022036;28;20037;-66
2024/03/11 12:29:21;;;;;;;22.55;13.82;;;12.70;99.90;;;;;;5021900;28;20029;-67
2024/03/11 12:31:55;;;;;;;20.35;12.52;;;12.70;99.90;;;;;;5021642;28;20083;-66
2024/03/11 12:34:24;;;;;;;24.52;14.50;;;12.70;99.90;;;;;;5057160;28;20144;-65
2024/03/11 12:36:51;;;;;;;21.77;15.23;;;12.60;99.90;;;;;;5021422;28;20053;-67
2024/03/11 12:39:26;;;;;;;21.33;14.60;;;13.20;99.90;;;;;;5024283;28;20053;-67
2024/03/11 12:41:56;;;;;;;23.63;15.75;;;12.80;99.90;;;;;;5019678;28;20295;-68